Cape Martin — C4SG2 — position and weather

sailwx.info

Track history (hours):
 
Tides and Currents Weather Stations Pressure Air Temp Water Temp Dewpoint Dewpoint Depression Visibility Wind Speed Wind Dir Waves Ship Positions

Cape Martin

Last reported at 2017-Oct-16 08:16 UTC. Time now 2017-Oct-17 05:46 UTC.
Position N 29°21' W 094°47'.

Length 226 m; draft 10 m.

Type: Cargo ship. MMSI: 210516000.

Date/timePositionNaut miles runAvg speedWind from/ knotsBaromVisibWave heightAir tempDewpointWater temp
2017-Oct-16 08:16N 29°21' W 094°47'413.4
2017-Oct-16 08:01N 29°24' W 094°49'612.7
2017-Oct-16 07:31N 29°30' W 094°52'612.4
2017-Oct-16 07:01N 29°35' W 094°56'611.2
2017-Oct-16 06:31N 29°41' W 094°59'1 0.5
2017-Oct-16 03:55N 29°41' W 095°00'0 0.0
2017-Oct-16 03:28N 29°41' W 095°00'0 0.0
2017-Oct-16 01:28N 29°41' W 095°00'0 0.0
2017-Oct-15 23:01N 29°41' W 095°00'0 0.0
2017-Oct-15 22:19N 29°41' W 095°00'0 0.0
2017-Oct-15 21:40N 29°41' W 095°00'0 0.0
2017-Oct-15 21:31N 29°41' W 095°00'0 0.0
2017-Oct-15 15:01N 29°41' W 095°00'0 0.0
2017-Oct-15 13:52N 29°41' W 095°00'0 0.0
2017-Oct-15 13:28N 29°41' W 095°00'0 0.0
2017-Oct-15 10:46N 29°41' W 095°00'0 0.0
2017-Oct-15 10:28N 29°41' W 095°00'0 0.6
2017-Oct-15 10:01N 29°41' W 094°60'3 5.3
2017-Oct-15 09:31N 29°39' W 094°58'510.6
2017-Oct-15 09:01N 29°34' W 094°55'612.1
2017-Oct-15 08:29N 29°29' W 094°51'613.4
2017-Oct-15 08:00N 29°23' W 094°48'  
2017-Oct-09 07:16N 27°36' W 082°44'414.6
2017-Oct-09 07:00N 27°37' W 082°39'714.0
2017-Oct-09 06:30N 27°42' W 082°33'713.1
2017-Oct-09 06:00N 27°48' W 082°30'510.0
2017-Oct-09 05:30N 27°52' W 082°27'3 6.8
2017-Oct-09 05:00N 27°55' W 082°26'0 0.6
2017-Oct-09 04:30N 27°55' W 082°26'0 0.0
2017-Oct-09 04:00N 27°55' W 082°26'0 0.0
2017-Oct-09 03:30N 27°55' W 082°26'0 0.0
2017-Oct-09 03:00N 27°55' W 082°26'0 0.0
2017-Oct-09 02:30N 27°55' W 082°26'0 0.0
2017-Oct-09 02:00N 27°55' W 082°26'0 0.0
2017-Oct-09 01:30N 27°55' W 082°26'0 0.0
2017-Oct-09 01:00N 27°55' W 082°26'0 0.0
2017-Oct-09 00:30N 27°55' W 082°26'0 0.0
2017-Oct-09 00:00N 27°55' W 082°26'0 0.0
2017-Oct-08 23:30N 27°55' W 082°26'0 0.0
2017-Oct-08 23:00N 27°55' W 082°26'0 0.0
2017-Oct-08 22:30N 27°55' W 082°26'0 0.0
2017-Oct-08 22:00N 27°55' W 082°26'0 0.0
2017-Oct-08 21:30N 27°55' W 082°26'0 0.0
2017-Oct-08 20:57N 27°55' W 082°26'0 0.0
2017-Oct-08 20:30N 27°55' W 082°26'0 0.0
2017-Oct-08 20:00N 27°55' W 082°26'0 0.0
2017-Oct-08 19:30N 27°55' W 082°26'0 0.0
2017-Oct-08 18:57N 27°55' W 082°26'0 0.0
2017-Oct-08 18:27N 27°55' W 082°26'0 0.0
2017-Oct-08 18:00N 27°55' W 082°26'0 0.0
2017-Oct-08 17:30N 27°55' W 082°26'0 0.0
2017-Oct-08 17:00N 27°55' W 082°26'0 0.0
2017-Oct-08 16:30N 27°55' W 082°26'0 0.0
2017-Oct-08 16:00N 27°55' W 082°26'0 0.0
2017-Oct-08 15:30N 27°55' W 082°26'0 0.0
2017-Oct-08 15:00N 27°55' W 082°26'0 0.0
2017-Oct-08 14:30N 27°55' W 082°26'0 0.0
2017-Oct-08 14:00N 27°55' W 082°26'0 0.0
2017-Oct-08 13:30N 27°55' W 082°26'0 0.0
2017-Oct-08 13:00N 27°55' W 082°26'0 0.0
2017-Oct-08 12:30N 27°55' W 082°26'0 0.0
2017-Oct-08 12:00N 27°55' W 082°26'0 0.0
2017-Oct-08 11:30N 27°55' W 082°26'0 0.0
2017-Oct-08 10:57N 27°55' W 082°26'0 0.0
2017-Oct-08 10:30N 27°55' W 082°26'0 0.0
2017-Oct-08 10:00N 27°55' W 082°26'1 1.3
2017-Oct-08 09:30N 27°54' W 082°26'4 9.0
2017-Oct-08 09:00N 27°50' W 082°27'612.8
2017-Oct-08 08:30N 27°45' W 082°32'814.4
2017-Oct-08 07:59N 27°39' W 082°37'  
Track history (hours):
 
Tides and Currents Weather Stations Pressure Air Temp Water Temp Dewpoint Dewpoint Depression Visibility Wind Speed Wind Dir Waves Ship Positions

Cape Martin

Last reported at 2017-Oct-16 08:16 UTC. Time now 2017-Oct-17 05:46 UTC.
Position N 29°21' W 094°47'.

Length 226 m; draft 10 m.

Type: Cargo ship. MMSI: 210516000.

Date/timePositionNaut miles runAvg speedWind from/ knotsBaromVisibWave heightAir tempDewpointWater temp
2017-Oct-16 08:16N 29°21' W 094°47'413.4
2017-Oct-16 08:01N 29°24' W 094°49'612.7
2017-Oct-16 07:31N 29°30' W 094°52'612.4
2017-Oct-16 07:01N 29°35' W 094°56'611.2
2017-Oct-16 06:31N 29°41' W 094°59'1 0.5
2017-Oct-16 03:55N 29°41' W 095°00'0 0.0
2017-Oct-16 03:28N 29°41' W 095°00'0 0.0
2017-Oct-16 01:28N 29°41' W 095°00'0 0.0
2017-Oct-15 23:01N 29°41' W 095°00'0 0.0
2017-Oct-15 22:19N 29°41' W 095°00'0 0.0
2017-Oct-15 21:40N 29°41' W 095°00'0 0.0
2017-Oct-15 21:31N 29°41' W 095°00'0 0.0
2017-Oct-15 15:01N 29°41' W 095°00'0 0.0
2017-Oct-15 13:52N 29°41' W 095°00'0 0.0
2017-Oct-15 13:28N 29°41' W 095°00'0 0.0
2017-Oct-15 10:46N 29°41' W 095°00'0 0.0
2017-Oct-15 10:28N 29°41' W 095°00'0 0.6
2017-Oct-15 10:01N 29°41' W 094°60'3 5.3
2017-Oct-15 09:31N 29°39' W 094°58'510.6
2017-Oct-15 09:01N 29°34' W 094°55'612.1
2017-Oct-15 08:29N 29°29' W 094°51'613.4
2017-Oct-15 08:00N 29°23' W 094°48'  
2017-Oct-09 07:16N 27°36' W 082°44'414.6
2017-Oct-09 07:00N 27°37' W 082°39'714.0
2017-Oct-09 06:30N 27°42' W 082°33'713.1
2017-Oct-09 06:00N 27°48' W 082°30'510.0
2017-Oct-09 05:30N 27°52' W 082°27'3 6.8
2017-Oct-09 05:00N 27°55' W 082°26'0 0.6
2017-Oct-09 04:30N 27°55' W 082°26'0 0.0
2017-Oct-09 04:00N 27°55' W 082°26'0 0.0
2017-Oct-09 03:30N 27°55' W 082°26'0 0.0
2017-Oct-09 03:00N 27°55' W 082°26'0 0.0
2017-Oct-09 02:30N 27°55' W 082°26'0 0.0
2017-Oct-09 02:00N 27°55' W 082°26'0 0.0
2017-Oct-09 01:30N 27°55' W 082°26'0 0.0
2017-Oct-09 01:00N 27°55' W 082°26'0 0.0
2017-Oct-09 00:30N 27°55' W 082°26'0 0.0
2017-Oct-09 00:00N 27°55' W 082°26'0 0.0
2017-Oct-08 23:30N 27°55' W 082°26'0 0.0
2017-Oct-08 23:00N 27°55' W 082°26'0 0.0
2017-Oct-08 22:30N 27°55' W 082°26'0 0.0
2017-Oct-08 22:00N 27°55' W 082°26'0 0.0
2017-Oct-08 21:30N 27°55' W 082°26'0 0.0
2017-Oct-08 20:57N 27°55' W 082°26'0 0.0
2017-Oct-08 20:30N 27°55' W 082°26'0 0.0
2017-Oct-08 20:00N 27°55' W 082°26'0 0.0
2017-Oct-08 19:30N 27°55' W 082°26'0 0.0
2017-Oct-08 18:57N 27°55' W 082°26'0 0.0
2017-Oct-08 18:27N 27°55' W 082°26'0 0.0
2017-Oct-08 18:00N 27°55' W 082°26'0 0.0
2017-Oct-08 17:30N 27°55' W 082°26'0 0.0
2017-Oct-08 17:00N 27°55' W 082°26'0 0.0
2017-Oct-08 16:30N 27°55' W 082°26'0 0.0
2017-Oct-08 16:00N 27°55' W 082°26'0 0.0
2017-Oct-08 15:30N 27°55' W 082°26'0 0.0
2017-Oct-08 15:00N 27°55' W 082°26'0 0.0
2017-Oct-08 14:30N 27°55' W 082°26'0 0.0
2017-Oct-08 14:00N 27°55' W 082°26'0 0.0
2017-Oct-08 13:30N 27°55' W 082°26'0 0.0
2017-Oct-08 13:00N 27°55' W 082°26'0 0.0
2017-Oct-08 12:30N 27°55' W 082°26'0 0.0
2017-Oct-08 12:00N 27°55' W 082°26'0 0.0
2017-Oct-08 11:30N 27°55' W 082°26'0 0.0
2017-Oct-08 10:57N 27°55' W 082°26'0 0.0
2017-Oct-08 10:30N 27°55' W 082°26'0 0.0
2017-Oct-08 10:00N 27°55' W 082°26'1 1.3
2017-Oct-08 09:30N 27°54' W 082°26'4 9.0
2017-Oct-08 09:00N 27°50' W 082°27'612.8
2017-Oct-08 08:30N 27°45' W 082°32'814.4
2017-Oct-08 07:59N 27°39' W 082°37'  

Dump ship's entire track history